Cartersville, South Carolina
Current Conditions -  °F | °C
As of 7:48 PM on Monday 22 Dec 2014 (Local Time) from KFLO Reporting Station
Haze Haze  
Wind Chill: 37°   Ceiling: 200
Heat Index: 43°   Visibility: 2.5mi
Dew Point: 41°   Wind: 9mph
Humidity: 93%   Direction: 50°NE
Pressure: 30.04"   Gusts: NA
Location:  34.07°N, 79.933°W
Report Text: KFLO 230048Z 05008KT 2 1/2SM BR OVC002 06/05 A3004 RMK AO2 RAB15E42 CIG 002V006 P0001
Loading
Personal Weather Stations






























Interactive Weather Map New forecast layout! Learn more

10-Day Weather Forecast

Advertisements
Track Severe Weather on mobile